createdAt,value
2023-08-28T00:01:15.212Z,20.07
2023-08-28T00:03:16.727Z,20.06
2023-08-28T00:05:18.241Z,20.08
2023-08-28T00:07:19.772Z,20.07
2023-08-28T00:09:21.264Z,20.07
2023-08-28T00:11:22.777Z,20.08
2023-08-28T00:13:24.400Z,20.06
2023-08-28T00:15:26.210Z,20.06
2023-08-28T00:17:28.379Z,20.06
2023-08-28T00:19:29.888Z,20.04
2023-08-28T00:21:31.476Z,20.05
2023-08-28T00:23:33.500Z,20.04
2023-08-28T00:25:35.123Z,20.06
2023-08-28T00:27:37.061Z,20.05
2023-08-28T00:29:38.534Z,20.05
2023-08-28T00:31:40.045Z,20.04
2023-08-28T00:33:41.537Z,20.04
2023-08-28T00:35:43.973Z,20.03
2023-08-28T00:37:46.363Z,20.03
2023-08-28T00:39:47.848Z,20.02
2023-08-28T00:41:49.491Z,20.02
2023-08-28T00:43:51.042Z,20.02
2023-08-28T00:45:52.605Z,20.01
2023-08-28T00:47:54.238Z,20.01
2023-08-28T00:49:55.873Z,20.00
2023-08-28T00:51:58.123Z,20.00
2023-08-28T00:53:59.640Z,20.00
2023-08-28T00:56:01.445Z,19.99
2023-08-28T00:58:03.586Z,19.98
2023-08-28T01:00:06.902Z,19.99
2023-08-28T01:02:08.441Z,19.98
2023-08-28T01:04:09.961Z,19.97
2023-08-28T01:06:15.367Z,19.98
2023-08-28T01:08:25.001Z,19.98
2023-08-28T01:10:35.440Z,19.98
2023-08-28T01:12:42.829Z,19.95
2023-08-28T01:14:51.049Z,19.96
2023-08-28T01:16:54.963Z,19.97
2023-08-28T01:18:57.213Z,19.97
2023-08-28T01:20:59.015Z,19.97
2023-08-28T01:23:19.419Z,19.97
2023-08-28T01:25:21.397Z,19.94
2023-08-28T01:27:23.432Z,19.95
2023-08-28T01:29:25.171Z,19.95
2023-08-28T01:31:26.716Z,19.95
2023-08-28T01:33:28.372Z,19.93
2023-08-28T01:35:32.380Z,19.93
2023-08-28T01:37:50.742Z,19.91
2023-08-28T01:39:53.057Z,19.91
2023-08-28T01:41:56.279Z,19.91
2023-08-28T01:44:02.039Z,19.91
2023-08-28T01:46:05.350Z,19.91
2023-08-28T01:48:07.629Z,19.90
2023-08-28T01:50:09.270Z,19.89
2023-08-28T01:52:10.782Z,19.90
2023-08-28T01:54:12.407Z,19.89
2023-08-28T01:56:13.949Z,19.89
2023-08-28T01:58:15.713Z,19.90
2023-08-28T02:00:17.191Z,19.89
2023-08-28T02:02:18.699Z,19.87
2023-08-28T02:04:20.238Z,19.88
2023-08-28T02:06:21.813Z,19.88
2023-08-28T02:08:23.410Z,19.89
2023-08-28T02:10:24.925Z,19.88
2023-08-28T02:12:26.375Z,19.88
2023-08-28T02:16:35.705Z,19.86
2023-08-28T02:18:37.345Z,19.86
2023-08-28T02:20:38.999Z,19.86
2023-08-28T02:22:40.428Z,19.84
2023-08-28T02:24:41.941Z,19.86
2023-08-28T02:26:43.558Z,19.84
2023-08-28T02:28:45.049Z,19.83
2023-08-28T02:30:46.945Z,19.84
2023-08-28T02:32:48.494Z,19.84
2023-08-28T02:34:50.030Z,19.84
2023-08-28T02:36:51.464Z,19.83
2023-08-28T02:38:53.002Z,19.83
2023-08-28T02:40:54.444Z,19.83
2023-08-28T02:42:56.605Z,19.83
2023-08-28T02:44:58.043Z,19.84
2023-08-28T02:46:59.474Z,19.83
2023-08-28T02:49:00.934Z,19.82
2023-08-28T02:51:02.465Z,19.82
2023-08-28T02:53:04.851Z,19.79
2023-08-28T02:55:07.005Z,19.82
2023-08-28T02:57:08.489Z,19.83
2023-08-28T02:59:10.052Z,19.81
2023-08-28T03:01:11.557Z,19.82
2023-08-28T03:03:13.130Z,19.82
2023-08-28T03:05:14.897Z,19.80
2023-08-28T03:07:16.384Z,19.81
2023-08-28T03:09:17.864Z,19.80
2023-08-28T03:11:19.509Z,19.78
2023-08-28T03:13:21.336Z,19.80
2023-08-28T03:15:22.902Z,19.80
2023-08-28T03:17:24.520Z,19.79
2023-08-28T03:19:26.037Z,19.77
2023-08-28T03:21:27.552Z,19.77
2023-08-28T03:23:29.188Z,19.77
2023-08-28T03:25:30.623Z,19.77
2023-08-28T03:27:32.593Z,19.77
2023-08-28T03:29:34.157Z,19.76
2023-08-28T03:31:35.724Z,19.76
2023-08-28T03:33:37.329Z,19.75
2023-08-28T03:35:38.848Z,19.74
2023-08-28T03:37:40.408Z,19.75
2023-08-28T03:39:42.009Z,19.67
2023-08-28T03:41:43.483Z,19.76
2023-08-28T03:43:44.910Z,19.75
2023-08-28T03:45:46.440Z,19.75
2023-08-28T03:47:48.001Z,19.76
2023-08-28T03:49:49.504Z,19.75
2023-08-28T03:51:51.063Z,19.75
2023-08-28T03:53:52.574Z,19.73
2023-08-28T03:55:54.620Z,19.72
2023-08-28T03:57:56.868Z,19.74
2023-08-28T03:59:58.562Z,19.73
2023-08-28T04:02:00.987Z,19.73
2023-08-28T04:04:02.608Z,19.72
2023-08-28T04:06:04.075Z,19.74
2023-08-28T04:08:06.090Z,19.73
2023-08-28T04:10:07.825Z,19.72
2023-08-28T04:12:09.376Z,19.72
2023-08-28T04:14:11.051Z,19.73
2023-08-28T04:16:12.597Z,19.72
2023-08-28T04:18:14.110Z,19.70
2023-08-28T04:20:16.388Z,19.70
2023-08-28T04:22:20.866Z,19.70
2023-08-28T04:24:24.089Z,19.69
2023-08-28T04:26:25.682Z,19.68
2023-08-28T04:28:28.017Z,19.69
2023-08-28T04:30:29.563Z,19.69
2023-08-28T04:32:31.088Z,19.68
2023-08-28T04:34:32.608Z,19.68
2023-08-28T04:36:34.171Z,19.67
2023-08-28T04:38:35.648Z,19.66
2023-08-28T04:40:37.299Z,19.67
2023-08-28T04:42:38.853Z,19.66
2023-08-28T04:44:40.343Z,19.64
2023-08-28T04:46:41.982Z,19.64
2023-08-28T04:48:43.514Z,19.65
2023-08-28T04:50:45.061Z,19.64
2023-08-28T04:52:46.572Z,19.64
2023-08-28T04:54:48.097Z,19.63
2023-08-28T04:56:49.872Z,19.66
2023-08-28T04:58:52.538Z,19.64
2023-08-28T05:00:54.067Z,19.64
2023-08-28T05:02:55.798Z,19.64
2023-08-28T05:04:57.361Z,19.65
2023-08-28T05:06:58.849Z,19.64
2023-08-28T05:09:00.384Z,19.64
2023-08-28T05:11:04.264Z,19.65
2023-08-28T05:13:06.143Z,19.64
2023-08-28T05:15:08.040Z,19.63
2023-08-28T05:17:09.535Z,19.63
2023-08-28T05:19:11.026Z,19.64
2023-08-28T05:21:12.529Z,19.62
2023-08-28T05:23:13.977Z,19.64
2023-08-28T05:25:15.725Z,19.62
2023-08-28T05:27:17.177Z,19.64
2023-08-28T05:29:18.661Z,19.63
2023-08-28T05:31:20.119Z,19.62
2023-08-28T05:33:21.640Z,19.63
2023-08-28T05:35:23.406Z,19.63
2023-08-28T05:37:25.820Z,19.62
2023-08-28T05:39:27.364Z,19.61
2023-08-28T05:41:28.808Z,19.62
2023-08-28T05:43:30.359Z,19.62
2023-08-28T05:45:31.987Z,19.62
2023-08-28T05:47:34.223Z,19.61
2023-08-28T05:49:35.692Z,19.60
2023-08-28T05:51:37.200Z,19.60
2023-08-28T05:53:39.420Z,19.59
2023-08-28T05:55:41.753Z,19.60
2023-08-28T05:57:43.297Z,19.60
2023-08-28T05:59:46.724Z,19.60
2023-08-28T06:01:48.364Z,19.61
2023-08-28T06:03:52.085Z,19.61
2023-08-28T06:05:53.616Z,19.61
2023-08-28T06:07:55.133Z,19.61
2023-08-28T06:09:56.627Z,19.61
2023-08-28T06:11:58.261Z,19.61
2023-08-28T06:14:00.053Z,19.63
2023-08-28T06:16:01.522Z,19.62
2023-08-28T06:18:03.452Z,19.63
2023-08-28T06:20:05.805Z,19.62
2023-08-28T06:22:07.365Z,19.62
2023-08-28T06:24:08.849Z,19.63
2023-08-28T06:26:10.299Z,19.64
2023-08-28T06:28:11.720Z,19.62
2023-08-28T06:30:13.347Z,19.63
2023-08-28T06:32:14.942Z,19.63
2023-08-28T06:34:16.516Z,19.61
2023-08-28T06:36:18.067Z,19.64
2023-08-28T06:38:19.585Z,19.64
2023-08-28T06:40:21.081Z,19.65
2023-08-28T06:42:23.964Z,19.64
2023-08-28T06:44:25.866Z,19.65
2023-08-28T06:46:27.972Z,19.64
2023-08-28T06:48:29.566Z,19.64
2023-08-28T06:50:31.096Z,19.64
2023-08-28T06:52:32.742Z,19.66
2023-08-28T06:54:49.648Z,19.66
2023-08-28T06:56:53.282Z,19.67
2023-08-28T06:58:54.800Z,19.66
2023-08-28T07:00:56.380Z,19.67
2023-08-28T07:02:58.600Z,19.67
2023-08-28T07:05:00.197Z,19.69
2023-08-28T07:07:01.788Z,19.69
2023-08-28T07:09:03.417Z,19.69
2023-08-28T07:11:04.880Z,19.69
2023-08-28T07:13:06.909Z,19.68
2023-08-28T07:15:11.268Z,19.70
2023-08-28T07:17:12.778Z,19.71
2023-08-28T07:19:14.653Z,19.71
2023-08-28T07:21:16.915Z,19.71
2023-08-28T07:23:18.429Z,19.71
2023-08-28T07:25:23.012Z,19.71
2023-08-28T07:27:24.716Z,19.72
2023-08-28T07:29:26.233Z,19.72
2023-08-28T07:31:27.659Z,19.81
2023-08-28T07:33:29.191Z,19.88
2023-08-28T07:35:35.426Z,19.93
2023-08-28T07:37:37.407Z,19.96
2023-08-28T07:39:39.328Z,20.01
2023-08-28T07:41:41.010Z,19.93
2023-08-28T07:43:43.890Z,19.88
2023-08-28T07:45:45.456Z,19.85
2023-08-28T07:47:47.018Z,19.83
2023-08-28T07:49:48.976Z,19.81
2023-08-28T07:51:50.437Z,19.80
2023-08-28T07:53:52.012Z,19.80
2023-08-28T07:55:53.615Z,19.80
2023-08-28T07:57:55.126Z,19.78
2023-08-28T07:59:56.729Z,19.78
2023-08-28T08:02:01.382Z,19.77
2023-08-28T08:04:02.941Z,19.76
2023-08-28T08:06:04.681Z,19.76
2023-08-28T08:08:06.333Z,19.77
2023-08-28T08:10:11.788Z,19.78
2023-08-28T08:12:13.314Z,19.79
2023-08-28T08:14:14.782Z,19.78
2023-08-28T08:16:16.513Z,19.78
2023-08-28T08:18:18.176Z,19.79
2023-08-28T08:20:21.247Z,19.78
2023-08-28T08:22:22.685Z,19.79
2023-08-28T08:24:24.284Z,19.77
2023-08-28T08:26:25.751Z,19.79
2023-08-28T08:28:27.257Z,19.82
2023-08-28T08:30:28.776Z,19.80
2023-08-28T08:32:30.381Z,19.80
2023-08-28T08:34:33.482Z,19.82
2023-08-28T08:36:34.926Z,19.83
2023-08-28T08:38:36.618Z,19.85
2023-08-28T08:40:40.661Z,19.85
2023-08-28T08:42:42.313Z,19.86
2023-08-28T08:44:43.810Z,19.87
2023-08-28T08:46:48.691Z,19.87
2023-08-28T08:48:50.710Z,19.88
2023-08-28T08:50:55.432Z,19.90
2023-08-28T08:53:01.258Z,19.93
2023-08-28T08:55:09.403Z,19.94
2023-08-28T08:57:34.201Z,19.97
2023-08-28T08:59:35.958Z,19.98
2023-08-28T09:01:38.577Z,19.97
2023-08-28T09:03:41.041Z,19.97
2023-08-28T09:05:43.092Z,19.98
2023-08-28T09:07:44.797Z,19.96
2023-08-28T09:09:46.372Z,19.97
2023-08-28T09:11:49.721Z,19.97
2023-08-28T09:13:52.290Z,19.97
2023-08-28T09:15:53.831Z,19.97
2023-08-28T09:17:55.377Z,19.96
2023-08-28T09:19:57.369Z,19.97
2023-08-28T09:21:58.825Z,19.97
2023-08-28T09:24:00.338Z,19.97
2023-08-28T09:26:04.122Z,19.97
2023-08-28T09:28:05.790Z,19.97
2023-08-28T09:30:08.185Z,19.97
2023-08-28T09:32:09.723Z,19.97
2023-08-28T09:34:11.528Z,19.97
2023-08-28T09:36:17.380Z,19.98
2023-08-28T09:38:19.496Z,20.00
2023-08-28T09:40:26.676Z,20.00
2023-08-28T09:42:28.460Z,20.01
2023-08-28T09:44:30.062Z,20.03
2023-08-28T09:46:31.649Z,20.04
2023-08-28T09:48:33.578Z,20.04
2023-08-28T09:50:35.950Z,20.03
2023-08-28T09:52:37.435Z,20.01
2023-08-28T09:54:39.005Z,20.00
2023-08-28T09:56:40.810Z,19.99
2023-08-28T09:58:48.106Z,19.97
2023-08-28T10:00:49.760Z,19.94
2023-08-28T10:02:51.712Z,19.93
2023-08-28T10:04:54.206Z,19.92
2023-08-28T10:06:58.792Z,19.92
2023-08-28T10:09:01.618Z,19.92
2023-08-28T10:11:04.172Z,19.92
2023-08-28T10:13:06.748Z,19.92
2023-08-28T10:15:08.972Z,19.82
2023-08-28T10:17:13.666Z,19.92
2023-08-28T10:19:20.919Z,19.92
2023-08-28T10:21:22.437Z,19.92
2023-08-28T10:23:25.134Z,19.93
2023-08-28T10:25:28.555Z,19.93
2023-08-28T10:27:30.581Z,19.95
2023-08-28T10:29:33.572Z,19.97
2023-08-28T10:31:36.832Z,19.97
2023-08-28T10:33:38.477Z,19.98
2023-08-28T10:35:41.780Z,19.99
2023-08-28T10:37:43.947Z,20.01
2023-08-28T10:39:45.676Z,20.00
2023-08-28T10:41:48.055Z,20.01
2023-08-28T10:43:50.018Z,20.02
2023-08-28T10:45:52.301Z,20.02
2023-08-28T10:47:53.925Z,20.03
2023-08-28T10:49:58.586Z,20.04
2023-08-28T10:52:05.973Z,20.05
2023-08-28T10:54:09.282Z,20.04
2023-08-28T10:56:11.689Z,20.05
2023-08-28T10:58:13.194Z,19.95
2023-08-28T11:02:22.709Z,20.09
2023-08-28T11:04:34.483Z,20.09
2023-08-28T11:06:36.067Z,20.11
2023-08-28T11:08:37.647Z,20.14
2023-08-28T11:10:42.279Z,20.15
2023-08-28T11:12:55.238Z,20.15
2023-08-28T11:14:58.527Z,20.16
2023-08-28T11:17:27.008Z,20.18
2023-08-28T11:19:30.072Z,20.18
2023-08-28T11:21:40.389Z,20.18
2023-08-28T11:23:43.771Z,20.18
2023-08-28T11:25:45.508Z,20.19
2023-08-28T11:27:47.931Z,20.19
2023-08-28T11:29:49.501Z,20.21
2023-08-28T11:31:51.089Z,20.21
2023-08-28T11:33:53.202Z,20.23
2023-08-28T11:35:58.836Z,20.23
2023-08-28T11:38:00.444Z,20.23
2023-08-28T11:40:02.692Z,20.23
2023-08-28T11:42:05.098Z,20.24
2023-08-28T11:44:11.526Z,20.24
2023-08-28T11:46:13.688Z,20.26
2023-08-28T11:48:15.288Z,20.25
2023-08-28T11:50:18.429Z,20.24
2023-08-28T11:52:19.979Z,20.24
2023-08-28T11:54:21.988Z,20.26
2023-08-28T11:56:23.667Z,20.25
2023-08-28T11:58:25.215Z,20.26
2023-08-28T12:00:26.858Z,20.25
2023-08-28T12:02:30.290Z,20.26
2023-08-28T12:04:38.032Z,20.25
2023-08-28T12:06:40.884Z,20.25
2023-08-28T12:08:43.161Z,20.26
2023-08-28T12:10:44.853Z,20.26
2023-08-28T12:12:47.767Z,20.26
2023-08-28T12:14:50.622Z,20.26
2023-08-28T12:16:58.970Z,20.25
2023-08-28T12:19:00.519Z,20.25
2023-08-28T12:21:05.137Z,20.26
2023-08-28T12:23:07.624Z,20.26
2023-08-28T12:25:09.433Z,20.16
2023-08-28T12:27:11.574Z,20.26
2023-08-28T12:29:13.122Z,20.27
2023-08-28T12:31:15.432Z,20.31
2023-08-28T12:33:16.969Z,20.34
2023-08-28T12:35:19.175Z,20.35
2023-08-28T12:37:20.731Z,20.38
2023-08-28T12:39:22.305Z,20.39
2023-08-28T12:41:23.926Z,20.40
2023-08-28T12:43:25.427Z,20.40
2023-08-28T12:45:26.900Z,20.41
2023-08-28T12:47:28.328Z,20.42
2023-08-28T12:49:29.861Z,20.43
2023-08-28T12:51:31.445Z,20.41
2023-08-28T12:53:32.903Z,20.40
2023-08-28T12:55:34.465Z,20.38
2023-08-28T12:57:36.122Z,20.35
2023-08-28T12:59:37.651Z,20.33
2023-08-28T13:01:39.303Z,20.31
2023-08-28T13:03:40.961Z,20.31
2023-08-28T13:05:42.817Z,20.29
2023-08-28T13:07:44.499Z,20.29
2023-08-28T13:09:47.257Z,20.30
2023-08-28T13:11:49.102Z,20.30
2023-08-28T13:13:50.698Z,20.29
2023-08-28T13:15:52.795Z,20.29
2023-08-28T13:17:54.326Z,20.30
2023-08-28T13:19:55.778Z,20.29
2023-08-28T13:21:58.572Z,20.30
2023-08-28T13:24:00.519Z,20.30
2023-08-28T13:26:02.028Z,20.31
2023-08-28T13:28:03.577Z,20.32
2023-08-28T13:30:08.316Z,20.32
2023-08-28T13:32:09.870Z,20.34
2023-08-28T13:34:11.485Z,20.33
2023-08-28T13:36:13.307Z,20.33
2023-08-28T13:38:14.969Z,20.32
2023-08-28T13:40:16.552Z,20.33
2023-08-28T13:42:18.036Z,20.34
2023-08-28T13:44:21.691Z,20.34
2023-08-28T13:46:23.165Z,20.35
2023-08-28T13:48:24.768Z,20.35
2023-08-28T13:50:26.271Z,20.35
2023-08-28T13:52:27.749Z,20.36
2023-08-28T13:54:29.309Z,20.36
2023-08-28T13:56:30.827Z,20.37
2023-08-28T13:58:32.858Z,20.36
2023-08-28T14:00:34.460Z,20.36
2023-08-28T14:02:37.314Z,20.36
2023-08-28T14:04:39.133Z,20.35
2023-08-28T14:06:40.730Z,20.35
2023-08-28T14:08:42.192Z,20.36
2023-08-28T14:10:43.781Z,20.37
2023-08-28T14:12:45.558Z,20.38
2023-08-28T14:14:47.019Z,20.37
2023-08-28T14:16:48.512Z,20.38
2023-08-28T14:18:50.048Z,20.40
2023-08-28T14:20:52.573Z,20.41
2023-08-28T14:22:54.061Z,20.42
2023-08-28T14:24:55.932Z,20.42
2023-08-28T14:26:57.429Z,20.42
2023-08-28T14:28:58.975Z,20.44
2023-08-28T14:31:01.047Z,20.43
2023-08-28T14:33:03.252Z,20.45
2023-08-28T14:35:05.163Z,20.47
2023-08-28T14:43:16.979Z,20.49
2023-08-28T14:45:18.509Z,20.48
2023-08-28T14:47:20.014Z,20.49
2023-08-28T14:55:41.401Z,20.50
2023-08-28T14:57:43.042Z,20.50
2023-08-28T14:59:44.485Z,20.49
2023-08-28T15:08:15.634Z,20.47
2023-08-28T15:10:18.981Z,20.47
2023-08-28T15:12:20.497Z,20.44
2023-08-28T15:14:21.953Z,20.43
2023-08-28T15:16:23.539Z,20.40
2023-08-28T15:18:25.002Z,20.38
2023-08-28T15:20:26.485Z,20.37
2023-08-28T15:22:30.980Z,20.36
2023-08-28T15:24:33.816Z,20.36
2023-08-28T15:26:35.499Z,20.36
2023-08-28T15:28:37.493Z,20.36
2023-08-28T15:30:39.127Z,20.39
2023-08-28T15:32:41.426Z,20.38
2023-08-28T15:34:42.978Z,20.35
2023-08-28T15:36:44.829Z,20.35
2023-08-28T15:38:46.292Z,20.34
2023-08-28T15:40:47.797Z,20.34
2023-08-28T15:42:49.549Z,20.34
2023-08-28T15:44:51.364Z,20.33
2023-08-28T15:46:52.876Z,20.33
2023-08-28T15:48:54.347Z,20.29
2023-08-28T15:50:56.876Z,20.30
2023-08-28T15:52:58.367Z,20.30
2023-08-28T15:54:59.895Z,20.30
2023-08-28T15:57:01.341Z,20.30
2023-08-28T15:59:13.556Z,20.28
2023-08-28T16:01:16.308Z,20.27
2023-08-28T16:03:17.900Z,20.27
2023-08-28T16:05:19.578Z,20.27
2023-08-28T16:07:22.569Z,20.27
2023-08-28T16:09:24.331Z,20.27
2023-08-28T16:11:25.762Z,20.27
2023-08-28T16:13:27.334Z,20.27
2023-08-28T16:15:29.014Z,20.27
2023-08-28T16:17:30.529Z,20.27
2023-08-28T16:19:32.152Z,20.27
2023-08-28T16:21:35.972Z,20.28
2023-08-28T16:23:37.649Z,20.29
2023-08-28T16:25:40.104Z,20.29
2023-08-28T16:27:45.056Z,20.27
2023-08-28T16:29:46.676Z,20.27
2023-08-28T16:31:48.184Z,20.27
2023-08-28T16:33:49.967Z,20.29
2023-08-28T16:35:51.488Z,20.29
2023-08-28T16:37:52.983Z,20.28
2023-08-28T16:39:54.450Z,20.29
2023-08-28T16:41:57.805Z,20.29
2023-08-28T16:43:59.321Z,20.29
2023-08-28T16:46:01.178Z,20.29
2023-08-28T16:48:03.052Z,20.29
2023-08-28T16:50:04.844Z,20.30
2023-08-28T16:52:06.548Z,20.28
2023-08-28T16:54:08.199Z,20.26
2023-08-28T16:56:09.963Z,20.29
2023-08-28T16:58:11.940Z,20.27
2023-08-28T17:00:14.858Z,20.26
2023-08-28T17:02:16.460Z,20.25
2023-08-28T17:04:18.051Z,20.25
2023-08-28T17:06:19.676Z,20.25
2023-08-28T17:08:22.522Z,20.25
2023-08-28T17:10:24.051Z,20.25
2023-08-28T17:12:25.576Z,20.25
2023-08-28T17:14:27.504Z,20.22
2023-08-28T17:16:29.075Z,20.22
2023-08-28T17:18:31.880Z,20.23
2023-08-28T17:20:33.390Z,20.22
2023-08-28T17:22:34.842Z,20.21
2023-08-28T17:24:36.321Z,20.21
2023-08-28T17:26:37.806Z,20.21
2023-08-28T17:28:39.758Z,20.20
2023-08-28T17:30:41.366Z,20.19
2023-08-28T17:32:49.340Z,20.17
2023-08-28T17:34:50.834Z,20.16
2023-08-28T17:36:52.456Z,20.18
2023-08-28T17:39:10.574Z,20.16
2023-08-28T17:41:12.159Z,20.17
2023-08-28T17:43:13.702Z,20.18
2023-08-28T17:45:15.168Z,20.16
2023-08-28T17:47:16.628Z,20.16
2023-08-28T17:49:18.115Z,20.16
2023-08-28T17:51:19.713Z,20.17
2023-08-28T17:53:21.360Z,20.15
2023-08-28T17:55:22.813Z,20.16
2023-08-28T17:57:24.598Z,20.14
2023-08-28T17:59:26.106Z,20.13
2023-08-28T18:01:27.743Z,20.13
2023-08-28T18:05:34.571Z,20.14
2023-08-28T18:07:36.919Z,20.10
2023-08-28T18:09:38.614Z,20.09
2023-08-28T18:11:41.569Z,20.07
2023-08-28T18:13:44.634Z,20.06
2023-08-28T18:15:47.661Z,20.06
2023-08-28T18:17:50.932Z,20.06
2023-08-28T18:19:52.471Z,20.05
2023-08-28T18:21:54.174Z,20.04
2023-08-28T18:23:55.803Z,20.05
2023-08-28T18:25:57.276Z,20.04
2023-08-28T18:28:07.030Z,20.04
2023-08-28T18:30:09.972Z,20.03
2023-08-28T18:32:11.553Z,20.02
2023-08-28T18:34:13.170Z,20.02
2023-08-28T18:36:14.628Z,20.02
2023-08-28T18:38:16.496Z,20.02
2023-08-28T18:40:18.288Z,20.02
2023-08-28T18:42:19.864Z,20.02
2023-08-28T18:44:21.465Z,20.01
2023-08-28T18:46:23.039Z,20.00
2023-08-28T18:48:24.654Z,20.00
2023-08-28T18:50:26.897Z,20.00
2023-08-28T18:52:28.425Z,20.00
2023-08-28T18:54:29.938Z,19.99
2023-08-28T18:56:31.424Z,19.98
2023-08-28T18:58:33.064Z,19.98
2023-08-28T19:00:34.983Z,19.98
2023-08-28T19:02:36.511Z,19.97
2023-08-28T19:04:41.138Z,19.96
2023-08-28T19:06:42.675Z,19.97
2023-08-28T19:08:44.336Z,19.95
2023-08-28T19:10:45.987Z,19.95
2023-08-28T19:12:47.885Z,19.96
2023-08-28T19:14:49.733Z,19.95
2023-08-28T19:16:51.287Z,19.95
2023-08-28T19:18:53.251Z,19.94
2023-08-28T19:21:02.664Z,19.94
2023-08-28T19:23:05.580Z,19.93
2023-08-28T19:25:09.687Z,19.92
2023-08-28T19:27:11.154Z,19.93
2023-08-28T19:29:12.640Z,19.92
2023-08-28T19:31:14.107Z,19.92
2023-08-28T19:33:16.888Z,19.91
2023-08-28T19:35:19.696Z,19.91
2023-08-28T19:37:21.292Z,19.91
2023-08-28T19:39:22.849Z,19.90
2023-08-28T19:41:24.421Z,19.90
2023-08-28T19:43:25.870Z,19.90
2023-08-28T19:45:27.308Z,19.88
2023-08-28T19:47:29.332Z,19.89
2023-08-28T19:49:30.834Z,19.88
2023-08-28T19:51:32.430Z,19.88
2023-08-28T19:53:33.921Z,19.88
2023-08-28T19:55:35.898Z,19.87
2023-08-28T19:57:38.404Z,19.87
2023-08-28T19:59:40.100Z,19.87
2023-08-28T20:01:41.759Z,19.87
2023-08-28T20:03:43.367Z,19.87
2023-08-28T20:05:44.892Z,19.86
2023-08-28T20:07:46.485Z,19.85
2023-08-28T20:09:47.955Z,19.84
2023-08-28T20:11:49.480Z,19.83
2023-08-28T20:13:50.960Z,19.82
2023-08-28T20:15:53.696Z,19.82
2023-08-28T20:17:55.210Z,19.82
2023-08-28T20:19:58.577Z,19.82
2023-08-28T20:22:00.590Z,19.82
2023-08-28T20:24:02.014Z,19.81
2023-08-28T20:26:04.040Z,19.82
2023-08-28T20:28:06.054Z,19.82
2023-08-28T20:30:09.532Z,19.80
2023-08-28T20:32:11.582Z,19.79
2023-08-28T20:34:13.081Z,19.78
2023-08-28T20:36:14.527Z,19.79
2023-08-28T20:38:16.061Z,19.76
2023-08-28T20:40:17.568Z,19.75
2023-08-28T20:42:19.076Z,19.76
2023-08-28T20:44:22.583Z,19.75
2023-08-28T20:46:25.951Z,19.75
2023-08-28T20:48:27.438Z,19.74
2023-08-28T20:50:29.412Z,19.73
2023-08-28T20:52:30.900Z,19.72
2023-08-28T20:54:32.417Z,19.72
2023-08-28T20:56:33.929Z,19.73
2023-08-28T20:58:37.887Z,19.73
2023-08-28T21:00:39.435Z,19.72
2023-08-28T21:02:40.951Z,19.73
2023-08-28T21:04:42.582Z,19.73
2023-08-28T21:06:44.066Z,19.72
2023-08-28T21:08:46.396Z,19.73
2023-08-28T21:10:47.961Z,19.72
2023-08-28T21:12:49.522Z,19.72
2023-08-28T21:14:51.029Z,19.72
2023-08-28T21:16:52.518Z,19.71
2023-08-28T21:18:54.382Z,19.71
2023-08-28T21:20:55.868Z,19.70
2023-08-28T21:22:57.344Z,19.70
2023-08-28T21:24:58.835Z,19.69
2023-08-28T21:27:00.349Z,19.70
2023-08-28T21:29:01.903Z,19.69
2023-08-28T21:31:05.210Z,19.68
2023-08-28T21:33:06.970Z,19.68
2023-08-28T21:35:08.926Z,19.68
2023-08-28T21:37:10.427Z,19.68
2023-08-28T21:39:11.907Z,19.67
2023-08-28T21:41:13.448Z,19.66
2023-08-28T21:43:14.897Z,19.64
2023-08-28T21:45:16.325Z,19.66
2023-08-28T21:47:17.882Z,19.67
2023-08-28T21:49:19.390Z,19.67
2023-08-28T21:51:20.853Z,19.66
2023-08-28T21:53:22.321Z,19.66
2023-08-28T21:55:23.816Z,19.66
2023-08-28T21:57:25.473Z,19.66
2023-08-28T21:59:26.957Z,19.66
2023-08-28T22:01:28.569Z,19.66
2023-08-28T22:03:30.009Z,19.65
2023-08-28T22:05:31.495Z,19.65
2023-08-28T22:07:32.962Z,19.63
2023-08-28T22:09:34.602Z,19.63
2023-08-28T22:11:36.091Z,19.62
2023-08-28T22:13:37.649Z,19.63
2023-08-28T22:15:41.821Z,19.63
2023-08-28T22:17:46.110Z,19.62
2023-08-28T22:19:50.111Z,19.61
2023-08-28T22:21:51.579Z,19.62
2023-08-28T22:23:53.137Z,19.61
2023-08-28T22:25:54.702Z,19.61
2023-08-28T22:27:56.178Z,19.60
2023-08-28T22:29:57.714Z,19.59
2023-08-28T22:31:59.465Z,19.59
2023-08-28T22:34:01.004Z,19.60
2023-08-28T22:36:02.435Z,19.59
2023-08-28T22:38:04.318Z,19.59
2023-08-28T22:40:08.441Z,19.58
2023-08-28T22:42:09.979Z,19.58
2023-08-28T22:44:11.499Z,19.58
2023-08-28T22:46:12.996Z,19.57
2023-08-28T22:48:14.625Z,19.56
2023-08-28T22:50:16.212Z,19.56
2023-08-28T22:52:17.785Z,19.56
2023-08-28T22:54:19.245Z,19.56
2023-08-28T22:56:20.731Z,19.55
2023-08-28T22:58:22.291Z,19.55
2023-08-28T23:00:23.817Z,19.54
2023-08-28T23:02:25.430Z,19.54
2023-08-28T23:04:27.183Z,19.54
2023-08-28T23:06:28.736Z,19.53
2023-08-28T23:08:30.467Z,19.52
2023-08-28T23:10:33.086Z,19.52
2023-08-28T23:12:34.616Z,19.52
2023-08-28T23:14:36.184Z,19.52
2023-08-28T23:16:37.684Z,19.52
2023-08-28T23:18:39.203Z,19.52
2023-08-28T23:20:40.941Z,19.50
2023-08-28T23:22:42.725Z,19.50
2023-08-28T23:24:46.224Z,19.49
2023-08-28T23:26:47.757Z,19.50
2023-08-28T23:28:50.144Z,19.50
2023-08-28T23:30:51.617Z,19.49
2023-08-28T23:32:53.230Z,19.47
2023-08-28T23:34:54.889Z,19.47
2023-08-28T23:36:56.408Z,19.46
2023-08-28T23:38:58.124Z,19.46
2023-08-28T23:40:59.671Z,19.47
2023-08-28T23:43:01.145Z,19.46
2023-08-28T23:45:02.979Z,19.37
2023-08-28T23:47:04.517Z,19.45
2023-08-28T23:49:06.176Z,19.46
2023-08-28T23:51:08.128Z,19.46
2023-08-28T23:53:09.757Z,19.46
2023-08-28T23:55:11.253Z,19.44
2023-08-28T23:57:12.753Z,19.45
2023-08-28T23:59:14.305Z,19.43
